Time;durP1;ratioP1;P1;durP2;ratioP2;P2;SDS_P1;SDS_P2;PMS_P1;PMS_P2;Temp;Humidity;BMP_temperature;BMP_pressure;BME280_temperature;BME280_humidity;BME280_pressure;Samples;Min_cycle;Max_cycle;Signal;HPM_P1;HPM_P2
2021/12/01 04:44:26;;;;;;;1.65;1.55;;;;;;;4.52;85.69;99536.87;5881499;27;20494;-88
2021/12/01 04:47:32;;;;;;;1.90;1.70;;;;;;;4.55;85.52;99547.22;5306623;33;35063;-86
2021/12/01 04:50:34;;;;;;;1.65;1.55;;;;;;;4.48;86.20;99547.00;5306726;33;34016;-86
2021/12/01 04:53:38;;;;;;;1.75;1.65;;;;;;;4.44;86.30;99547.47;5306403;33;34077;-86
2021/12/01 04:56:42;;;;;;;1.67;1.58;;;;;;;4.41;86.55;99561.94;5306378;33;33856;-86
2021/12/01 04:59:45;;;;;;;2.12;1.98;;;;;;;4.45;86.34;99559.84;5306149;33;34056;-86
2021/12/01 05:02:48;;;;;;;1.92;1.83;;;;;;;4.37;86.50;99559.78;5306468;33;33577;-85
2021/12/01 05:05:51;;;;;;;2.10;2.00;;;;;;;4.29;87.30;99555.22;5319429;33;35199;-85
2021/12/01 05:08:54;;;;;;;2.05;1.90;;;;;;;4.24;87.60;99560.19;5324125;33;33734;-86
2021/12/01 05:11:57;;;;;;;1.90;1.80;;;;;;;4.24;87.09;99557.53;5323949;33;33704;-85
2021/12/01 05:14:59;;;;;;;2.28;2.12;;;;;;;4.27;86.98;99570.53;5323504;33;33954;-86
2021/12/01 05:18:02;;;;;;;2.05;1.95;;;;;;;4.24;86.99;99569.03;5323548;33;34921;-85
2021/12/01 05:21:10;;;;;;;2.37;2.20;;;;;;;4.18;88.05;99564.31;5323588;33;33722;-85
2021/12/01 05:24:13;;;;;;;2.10;1.90;;;;;;;4.15;88.02;99569.94;5322670;33;34247;-85
2021/12/01 05:27:15;;;;;;;2.10;2.00;;;;;;;4.12;88.07;99580.09;5323177;33;33868;-86
2021/12/01 05:30:20;;;;;;;2.92;2.22;;;;;;;3.98;89.13;99590.34;5323618;33;33416;-85
2021/12/01 05:33:23;;;;;;;2.40;2.20;;;;;;;3.93;89.55;99602.44;5322998;33;33999;-86
2021/12/01 05:36:26;;;;;;;2.05;1.95;;;;;;;3.89;89.64;99619.69;5325225;33;33712;-85
2021/12/01 05:39:29;;;;;;;2.40;2.20;;;;;;;3.99;89.20;99628.44;5326036;33;34375;-86
2021/12/01 05:42:32;;;;;;;2.00;1.90;;;;;;;3.99;90.13;99644.44;5326595;33;33970;-85
2021/12/01 05:45:36;;;;;;;3.30;2.03;;;;;;;4.08;89.51;99647.00;5326156;33;33596;-85
2021/12/01 05:48:38;;;;;;;1.85;1.75;;;;;;;4.34;87.49;99654.19;5334986;33;33443;-85
2021/12/01 05:51:42;;;;;;;1.87;1.77;;;;;;;4.44;86.97;99659.41;5336940;33;36057;-85
2021/12/01 05:54:50;;;;;;;1.92;1.83;;;;;;;4.45;87.05;99661.94;5325530;33;34083;-86
2021/12/01 05:57:52;;;;;;;2.00;1.90;;;;;;;4.37;88.33;99669.88;5325754;33;33005;-86
2021/12/01 06:00:55;;;;;;;2.33;2.12;;;;;;;4.42;87.97;99680.06;5325955;33;33897;-85
2021/12/01 06:03:58;;;;;;;1.90;1.80;;;;;;;4.39;88.75;99683.03;5326315;33;34158;-89
2021/12/01 06:07:01;;;;;;;2.30;2.10;;;;;;;4.52;87.37;99676.28;5332176;33;34178;-89
2021/12/01 06:10:04;;;;;;;2.00;1.90;;;;;;;4.52;88.01;99680.81;5341855;33;34935;-88
2021/12/01 06:13:08;;;;;;;2.10;2.00;;;;;;;4.57;87.38;99683.84;5329596;33;35056;-90
2021/12/01 06:16:11;;;;;;;1.80;1.70;;;;;;;4.73;86.44;99686.59;5326034;33;34463;-86
2021/12/01 06:19:14;;;;;;;2.30;2.10;;;;;;;4.72;86.69;99692.09;5326153;33;33953;-86
2021/12/01 06:22:17;;;;;;;2.12;2.03;;;;;;;4.79;86.48;99701.13;5326157;33;34149;-86
2021/12/01 06:25:20;;;;;;;2.47;2.25;;;;;;;4.74;86.56;99703.44;5314404;33;35404;-86
2021/12/01 06:28:28;;;;;;;2.78;2.10;;;;;;;4.77;86.39;99717.31;5321489;33;33849;-86
2021/12/01 06:31:31;;;;;;;1.90;1.80;;;;;;;4.77;86.85;99724.47;5316589;33;34205;-86
2021/12/01 06:34:34;;;;;;;2.25;2.15;;;;;;;4.84;86.77;99730.00;5307707;33;34089;-86
2021/12/01 06:37:37;;;;;;;2.90;2.40;;;;;;;4.94;86.02;99734.25;5307873;33;35174;-86
2021/12/01 06:40:39;;;;;;;2.28;2.10;;;;;;;4.85;86.66;99734.34;5306397;33;34745;-86
2021/12/01 06:43:42;;;;;;;2.83;2.50;;;;;;;4.86;86.58;99738.69;5306505;33;34309;-86
2021/12/01 06:46:46;;;;;;;3.75;2.40;;;;;;;4.88;86.97;99748.19;5306529;33;34445;-86
2021/12/01 06:49:48;;;;;;;3.25;2.78;;;;;;;4.99;85.45;99753.28;5307504;33;33975;-86
2021/12/01 06:52:51;;;;;;;4.55;2.50;;;;;;;5.05;85.16;99748.31;5307998;33;33704;-86
2021/12/01 06:55:54;;;;;;;2.55;2.30;;;;;;;5.03;85.20;99745.81;5303081;33;34147;-86
2021/12/01 06:58:56;;;;;;;2.60;2.40;;;;;;;4.98;86.09;99745.44;5300340;33;34666;-86
2021/12/01 07:01:59;;;;;;;4.00;2.35;;;;;;;5.01;85.15;99755.78;5301082;33;33987;-86
2021/12/01 07:05:02;;;;;;;2.42;2.22;;;;;;;5.04;85.61;99758.13;5298901;33;34379;-86
2021/12/01 07:08:05;;;;;;;2.83;2.30;;;;;;;5.05;86.07;99751.81;5296523;33;34563;-86
2021/12/01 07:11:08;;;;;;;2.70;2.50;;;;;;;5.07;85.94;99757.00;5291491;33;34647;-86
2021/12/01 07:14:11;;;;;;;3.45;2.50;;;;;;;5.00;87.36;99754.09;5307169;33;33857;-87
2021/12/01 07:17:14;;;;;;;3.42;2.70;;;;;;;4.92;89.50;99749.56;5307189;33;33911;-87
2021/12/01 07:20:17;;;;;;;3.00;2.80;;;;;;;4.87;88.72;99756.38;5303581;33;34031;-87
2021/12/01 07:23:20;;;;;;;2.70;2.40;;;;;;;4.98;88.32;99756.09;5292027;33;33971;-87
2021/12/01 07:26:34;;;;;;;2.40;2.28;;;;;;;5.13;86.84;99759.03;5290213;33;33813;-88
2021/12/01 07:29:38;;;;;;;6.05;2.97;;;;;;;5.21;86.29;99743.91;5292260;33;33838;-87
2021/12/01 07:32:40;;;;;;;3.58;2.90;;;;;;;5.33;85.58;99739.12;5300259;33;33956;-87
2021/12/01 07:35:43;;;;;;;3.90;2.65;;;;;;;5.30;86.17;99742.13;5297612;33;33457;-87
2021/12/01 07:38:46;;;;;;;2.92;2.35;;;;;;;5.41;85.49;99723.16;5297792;33;34780;-87
2021/12/01 07:41:49;;;;;;;6.35;2.70;;;;;;;5.53;84.19;99718.34;5297935;33;33627;-87
2021/12/01 07:44:57;;;;;;;3.67;2.83;;;;;;;5.66;84.05;99701.88;5296817;33;34059;-87
2021/12/01 07:48:00;;;;;;;3.37;2.60;;;;;;;5.68;84.36;99706.03;5294649;33;33727;-87
2021/12/01 07:51:03;;;;;;;4.95;2.95;;;;;;;5.87;82.02;99704.06;5298290;33;34363;-87
2021/12/01 07:54:06;;;;;;;2.62;2.42;;;;;;;5.77;82.65;99714.91;5303747;33;34396;-87
2021/12/01 07:57:09;;;;;;;3.08;2.78;;;;;;;5.84;81.89;99726.59;5303230;33;33973;-87
2021/12/01 08:00:13;;;;;;;4.90;2.92;;;;;;;5.69;83.91;99738.91;5296763;33;34124;-87
2021/12/01 08:03:17;;;;;;;4.93;3.08;;;;;;;5.72;84.38;99738.59;5300428;33;34458;-87
2021/12/01 08:06:21;;;;;;;4.87;2.90;;;;;;;5.93;82.63;99745.31;5303480;33;33836;-87
2021/12/01 08:09:25;;;;;;;4.37;2.70;;;;;;;5.86;82.48;99743.31;5298758;33;33986;-87
2021/12/01 08:12:28;;;;;;;4.03;2.78;;;;;;;5.80;82.59;99737.78;5299013;33;33967;-89
2021/12/01 08:15:31;;;;;;;3.20;2.67;;;;;;;5.80;84.00;99735.13;5302211;33;33915;-91
2021/12/01 08:18:33;;;;;;;2.50;2.30;;;;;;;5.86;83.13;99735.31;5294745;33;33817;-92
2021/12/01 08:21:36;;;;;;;2.85;2.62;;;;;;;5.96;82.87;99724.50;5301912;33;33918;-91
2021/12/01 08:24:43;;;;;;;2.70;2.50;;;;;;;6.05;82.69;99720.81;5309513;33;33996;-88
2021/12/01 08:27:46;;;;;;;4.15;2.70;;;;;;;6.07;82.88;99716.16;5300515;33;33672;-87
2021/12/01 08:30:49;;;;;;;3.00;2.65;;;;;;;6.03;83.70;99711.34;5318286;33;34837;-87
2021/12/01 08:33:52;;;;;;;2.85;2.55;;;;;;;5.98;83.86;99701.13;5302943;33;34385;-88
2021/12/01 08:36:54;;;;;;;2.50;2.30;;;;;;;6.01;84.49;99702.63;5298658;33;33859;-88
2021/12/01 08:39:57;;;;;;;2.83;2.55;;;;;;;6.01;85.62;99699.97;5295576;33;35176;-88
2021/12/01 08:43:00;;;;;;;3.05;2.70;;;;;;;6.07;86.18;99700.12;5293053;33;33631;-85
2021/12/01 08:46:07;;;;;;;2.97;2.25;;;;;;;6.07;87.56;99694.78;5296783;33;33834;-85
2021/12/01 08:49:09;;;;;;;2.80;2.55;;;;;;;6.05;88.15;99710.13;5301262;33;33527;-85
2021/12/01 08:52:13;;;;;;;2.97;2.20;;;;;;;6.08;87.45;99717.84;5305303;33;33668;-85
2021/12/01 08:55:21;;;;;;;2.47;2.22;;;;;;;6.15;86.03;99719.87;5304043;33;34022;-85
2021/12/01 08:58:41;;;;;;;2.87;2.67;;;;;;;6.16;86.56;99717.00;5301309;33;34286;-85
2021/12/01 09:01:43;;;;;;;3.20;2.90;;;;;;;6.06;88.82;99719.84;5304408;33;34300;-85
2021/12/01 09:04:50;;;;;;;3.95;3.17;;;;;;;6.11;89.62;99712.19;5304691;33;34033;-85
2021/12/01 09:07:52;;;;;;;3.85;2.95;;;;;;;6.19;89.01;99714.00;5295969;33;33785;-85
2021/12/01 09:10:58;;;;;;;4.28;3.15;;;;;;;6.29;87.10;99714.69;5305915;33;33879;-85
2021/12/01 09:14:00;;;;;;;3.28;2.83;;;;;;;6.34;87.83;99706.97;5300913;33;32570;-85
2021/12/01 09:17:03;;;;;;;2.95;2.70;;;;;;;6.36;87.72;99706.84;5298978;33;33867;-85
2021/12/01 09:20:07;;;;;;;3.00;2.72;;;;;;;6.45;87.32;99702.31;5307128;33;34907;-85
2021/12/01 09:23:10;;;;;;;6.22;2.90;;;;;;;6.51;86.76;99707.00;5304556;33;34016;-85
2021/12/01 09:26:13;;;;;;;2.97;2.78;;;;;;;6.80;85.73;99693.09;5309883;33;33780;-85
2021/12/01 09:29:17;;;;;;;3.95;3.00;;;;;;;6.90;85.79;99691.03;5304860;33;35538;-85
2021/12/01 09:32:19;;;;;;;3.42;3.00;;;;;;;6.95;86.13;99691.38;5298087;33;33898;-85
2021/12/01 09:35:22;;;;;;;3.28;2.80;;;;;;;7.02;84.68;99687.00;5308237;33;33579;-85
2021/12/01 09:38:26;;;;;;;5.47;3.30;;;;;;;7.01;85.46;99685.31;5310333;33;34570;-85
2021/12/01 09:41:29;;;;;;;3.90;2.90;;;;;;;7.18;85.24;99675.41;5307940;33;34161;-85
2021/12/01 09:44:32;;;;;;;3.58;2.83;;;;;;;7.26;85.21;99655.81;5309174;33;33975;-85
2021/12/01 09:47:35;;;;;;;4.78;2.75;;;;;;;7.24;85.62;99661.31;5307006;33;34029;-85
2021/12/01 09:50:38;;;;;;;2.37;2.17;;;;;;;7.21;84.70;99642.09;5306594;33;33925;-85
2021/12/01 09:53:42;;;;;;;4.28;2.62;;;;;;;7.20;83.01;99643.13;5303855;33;109301;-85
2021/12/01 09:56:45;;;;;;;3.78;3.12;;;;;;;7.15;85.73;99650.84;5305931;33;34438;-85
2021/12/01 09:59:48;;;;;;;4.55;2.65;;;;;;;7.38;85.86;99643.69;5322119;33;34214;-85
2021/12/01 10:02:50;;;;;;;3.60;3.22;;;;;;;7.77;83.41;99640.09;5310237;33;35320;-85
2021/12/01 10:06:04;;;;;;;4.12;3.03;;;;;;;8.29;81.83;99625.13;5299338;33;33916;-85
2021/12/01 10:09:08;;;;;;;9.40;3.03;;;;;;;8.53;81.06;99634.81;5306072;33;34404;-89
2021/12/01 10:12:12;;;;;;;5.22;3.47;;;;;;;8.20;80.28;99629.75;5304370;33;32775;-85
2021/12/01 10:15:28;;;;;;;6.50;4.22;;;;;;;8.10;80.62;99631.81;5305551;33;34176;-85
2021/12/01 10:18:46;;;;;;;4.57;3.92;;;;;;;7.82;81.69;99623.50;5306792;33;33387;-85
2021/12/01 10:21:50;;;;;;;6.87;4.45;;;;;;;7.61;83.09;99611.59;5304089;33;33701;-85
2021/12/01 10:24:53;;;;;;;7.47;4.53;;;;;;;7.58;82.80;99621.84;5306371;33;35282;-85
2021/12/01 10:27:56;;;;;;;6.43;4.78;;;;;;;7.20;84.66;99627.87;5306685;33;34613;-85
2021/12/01 10:30:59;;;;;;;7.43;4.10;;;;;;;7.26;85.55;99626.34;5306555;33;35092;-85
2021/12/01 10:34:39;;;;;;;9.63;4.22;;;;;;;7.40;83.67;99630.13;5306793;33;34101;-84
2021/12/01 10:37:41;;;;;;;7.78;4.35;;;;;;;7.58;83.40;99630.69;5306449;33;33851;-85
2021/12/01 10:40:44;;;;;;;7.72;3.70;;;;;;;7.77;81.16;99634.75;5299904;33;33859;-85
2021/12/01 10:43:48;;;;;;;8.18;4.03;;;;;;;7.76;80.16;99627.75;5314795;33;33627;-85
2021/12/01 10:46:53;;;;;;;7.30;4.03;;;;;;;7.68;81.50;99627.78;5305669;33;33011;-85
2021/12/01 10:49:58;;;;;;;6.30;4.28;;;;;;;7.60;79.71;99627.84;5310339;33;34123;-85
2021/12/01 10:53:11;;;;;;;5.25;4.28;;;;;;;7.32;80.87;99628.34;5304185;33;34330;-84
2021/12/01 10:56:15;;;;;;;5.90;4.50;;;;;;;7.25;81.38;99630.03;5307343;33;33563;-84
2021/12/01 10:59:18;;;;;;;5.85;4.32;;;;;;;7.17;80.22;99622.88;5306459;33;33897;-84
2021/12/01 11:02:22;;;;;;;6.28;4.50;;;;;;;7.15;79.63;99613.34;5303923;33;33889;-84
2021/12/01 11:05:39;;;;;;;8.80;5.28;;;;;;;7.00;80.89;99605.22;5306101;33;35013;-84
2021/12/01 11:08:42;;;;;;;10.18;5.00;;;;;;;7.19;80.34;99598.59;5305167;33;35320;-84
2021/12/01 11:11:50;;;;;;;6.97;4.90;;;;;;;7.43;78.34;99601.16;5303365;33;34677;-84
2021/12/01 11:15:20;;;;;;;6.70;4.37;;;;;;;7.43;75.68;99603.84;5311120;33;35351;-88
2021/12/01 11:18:32;;;;;;;7.35;4.78;;;;;;;7.31;76.39;99599.03;5320019;33;34088;-85
2021/12/01 11:21:43;;;;;;;8.95;4.87;;;;;;;7.55;75.78;99580.16;5305846;33;35439;-85
2021/12/01 11:24:46;;;;;;;6.57;4.30;;;;;;;7.68;74.88;99582.25;5306711;33;33809;-85
2021/12/01 11:27:49;;;;;;;8.70;4.47;;;;;;;7.89;74.02;99579.72;5302494;33;35920;-84
2021/12/01 11:30:56;;;;;;;9.32;4.30;;;;;;;8.27;69.31;99563.62;5302432;33;33991;-84
2021/12/01 11:34:03;;;;;;;7.25;4.05;;;;;;;8.39;70.82;99562.22;5302594;33;34037;-84
2021/12/01 11:37:06;;;;;;;6.15;4.32;;;;;;;8.46;68.31;99554.25;5306139;33;34001;-84
2021/12/01 11:40:09;;;;;;;7.90;4.65;;;;;;;8.47;68.08;99550.56;5307536;33;33974;-84
2021/12/01 11:43:15;;;;;;;5.30;4.10;;;;;;;8.33;69.46;99544.13;5314072;33;34206;-84
2021/12/01 11:46:18;;;;;;;6.95;4.68;;;;;;;8.46;68.81;99527.44;5305491;33;33896;-84
2021/12/01 11:49:23;;;;;;;10.35;4.40;;;;;;;8.53;70.87;99519.47;5306605;33;33459;-84
2021/12/01 11:52:37;;;;;;;7.12;5.10;;;;;;;8.53;70.41;99508.75;5305661;33;34120;-84
2021/12/01 11:56:04;;;;;;;6.07;4.25;;;;;;;8.52;69.80;99510.59;5305214;33;33911;-84
2021/12/01 11:59:15;;;;;;;6.05;4.18;;;;;;;8.65;69.25;99503.72;5307519;33;32452;-84
2021/12/01 12:02:18;;;;;;;11.18;5.10;;;;;;;8.62;69.12;99491.53;5304901;33;34095;-84
2021/12/01 12:05:21;;;;;;;6.30;4.20;;;;;;;8.49;69.29;99492.19;5303162;33;33764;-84
2021/12/01 12:08:55;;;;;;;6.15;4.05;;;;;;;8.33;68.92;99474.41;5303495;33;34083;-84
2021/12/01 12:12:10;;;;;;;7.32;3.72;;;;;;;8.53;68.38;99481.91;5306827;33;33661;-84
2021/12/01 12:15:46;;;;;;;9.68;4.10;;;;;;;8.50;69.22;99461.66;5303619;33;34541;-87
2021/12/01 12:18:52;;;;;;;9.35;4.00;;;;;;;8.60;67.67;99453.34;5305793;33;33871;-86
2021/12/01 12:22:00;;;;;;;5.75;3.75;;;;;;;8.64;66.67;99451.94;5306613;33;33776;-86
2021/12/01 12:25:08;;;;;;;6.18;3.67;;;;;;;8.71;65.95;99443.94;5305534;33;33491;-87
2021/12/01 12:28:27;;;;;;;7.10;4.28;;;;;;;8.94;66.81;99438.44;5306494;33;33549;-87
2021/12/01 12:31:31;;;;;;;8.35;4.28;;;;;;;9.07;64.69;99441.25;5306198;33;33976;-87
2021/12/01 12:34:49;;;;;;;7.78;4.05;;;;;;;9.01;64.92;99434.81;5306138;33;34093;-87
2021/12/01 12:38:07;;;;;;;10.85;5.10;;;;;;;9.03;66.02;99445.34;5310155;33;34151;-87
2021/12/01 12:41:14;;;;;;;8.15;4.32;;;;;;;9.17;64.22;99432.88;5309746;33;34047;-87
2021/12/01 12:44:46;;;;;;;5.28;3.83;;;;;;;9.39;64.02;99431.00;5322839;33;35042;-87
2021/12/01 12:47:58;;;;;;;5.75;4.15;;;;;;;9.26;61.46;99429.03;5314169;33;33846;-87
2021/12/01 12:51:31;;;;;;;7.18;3.97;;;;;;;8.91;62.72;99428.91;5311600;33;34027;-86
2021/12/01 12:54:37;;;;;;;7.47;4.50;;;;;;;8.66;66.75;99432.94;5306242;33;34773;-87
2021/12/01 12:57:56;;;;;;;7.32;4.10;;;;;;;8.54;65.49;99403.94;5306766;33;32582;-86
2021/12/01 13:01:00;;;;;;;9.38;3.85;;;;;;;8.66;67.14;99409.66;5306816;33;34500;-87
2021/12/01 13:04:04;;;;;;;7.57;3.78;;;;;;;8.52;65.25;99411.34;5326457;33;35392;-87
2021/12/01 13:07:29;;;;;;;7.97;3.70;;;;;;;8.50;65.28;99394.59;5310832;33;35325;-87
2021/12/01 13:10:39;;;;;;;7.87;4.03;;;;;;;8.62;65.82;99393.06;5305648;33;33669;-87
2021/12/01 13:13:44;;;;;;;8.60;4.22;;;;;;;8.56;66.00;99387.66;5307376;33;33876;-87
2021/12/01 13:16:47;;;;;;;9.27;4.47;;;;;;;8.49;67.01;99384.06;5301897;33;35261;-87
2021/12/01 13:19:50;;;;;;;7.85;4.30;;;;;;;8.42;64.95;99394.69;5305379;33;34094;-84
2021/12/01 13:23:04;;;;;;;10.93;4.47;;;;;;;8.30;64.51;99388.12;5307885;33;33839;-86
2021/12/01 13:26:29;;;;;;;8.25;4.10;;;;;;;8.11;66.57;99394.91;5310007;33;33973;-86
2021/12/01 13:29:32;;;;;;;4.37;3.83;;;;;;;8.12;66.05;99386.66;5306922;33;34676;-89
2021/12/01 13:32:37;;;;;;;7.25;4.30;;;;;;;7.96;66.70;99386.88;5304264;33;34481;-85
2021/12/01 13:35:40;;;;;;;8.70;6.57;;;;;;;7.92;66.50;99393.59;5307015;33;33583;-85
2021/12/01 13:38:44;;;;;;;8.02;4.85;;;;;;;7.86;67.34;99383.63;5306718;33;33884;-85
2021/12/01 13:41:57;;;;;;;8.60;4.28;;;;;;;7.88;68.03;99377.06;5306302;33;34334;-85
2021/12/01 13:45:00;;;;;;;10.68;4.53;;;;;;;7.90;68.35;99392.97;5305918;33;34490;-85
2021/12/01 13:48:08;;;;;;;8.25;4.25;;;;;;;7.87;68.18;99398.72;5306278;33;34369;-85
2021/12/01 13:51:15;;;;;;;9.48;4.25;;;;;;;7.92;68.16;99391.75;5306017;33;34753;-85
2021/12/01 13:54:22;;;;;;;8.07;3.97;;;;;;;7.93;67.48;99385.41;5306028;33;33887;-85
2021/12/01 13:57:25;;;;;;;8.60;4.20;;;;;;;7.84;67.11;99383.84;5306128;33;33794;-85
2021/12/01 14:00:43;;;;;;;9.50;4.37;;;;;;;7.89;66.66;99381.41;5313275;33;34618;-84
2021/12/01 14:04:05;;;;;;;8.43;4.00;;;;;;;7.87;67.46;99375.41;5305216;33;35380;-85
2021/12/01 14:07:07;;;;;;;9.45;4.47;;;;;;;7.90;67.26;99385.78;5306371;33;34811;-85
2021/12/01 14:10:34;;;;;;;8.43;4.20;;;;;;;7.80;68.46;99374.47;5302403;33;34037;-85
2021/12/01 14:13:37;;;;;;;9.15;4.40;;;;;;;7.82;67.83;99383.19;5304252;33;33739;-85
2021/12/01 14:16:50;;;;;;;8.18;3.90;;;;;;;7.84;67.82;99382.97;5296691;33;34232;-85
2021/12/01 14:19:55;;;;;;;7.80;3.97;;;;;;;7.88;67.46;99385.13;5301466;33;33528;-85
2021/12/01 14:22:59;;;;;;;9.43;4.25;;;;;;;7.87;68.65;99371.91;5301579;33;33733;-84
2021/12/01 14:26:02;;;;;;;9.07;4.43;;;;;;;7.74;70.79;99369.88;5298050;33;34675;-85
2021/12/01 14:29:11;;;;;;;5.70;3.80;;;;;;;7.68;70.52;99367.91;5299959;33;33963;-84
2021/12/01 14:32:13;;;;;;;11.35;4.10;;;;;;;7.71;70.19;99365.69;5298217;33;32509;-85
2021/12/01 14:35:20;;;;;;;9.45;4.68;;;;;;;7.67;72.04;99351.03;5298374;33;35221;-85
2021/12/01 14:38:27;;;;;;;5.57;4.20;;;;;;;7.69;70.95;99354.34;5297393;33;34450;-85
2021/12/01 14:41:32;;;;;;;8.43;4.70;;;;;;;7.80;70.05;99342.31;5298699;33;35446;-85
2021/12/01 14:44:38;;;;;;;7.95;3.95;;;;;;;7.77;70.80;99339.19;5299261;33;34254;-85
2021/12/01 14:47:42;;;;;;;6.50;4.20;;;;;;;7.74;70.86;99337.72;5299429;33;34461;-85
2021/12/01 14:50:49;;;;;;;8.80;4.40;;;;;;;7.77;70.49;99340.03;5292551;33;33895;-85
2021/12/01 14:53:52;;;;;;;9.65;4.40;;;;;;;7.76;70.78;99333.00;5297765;33;34566;-85
2021/12/01 14:57:01;;;;;;;8.38;4.72;;;;;;;7.76;70.87;99326.81;5303163;33;34055;-84
2021/12/01 15:00:08;;;;;;;10.50;5.07;;;;;;;7.72;71.56;99331.69;5302768;33;34089;-84
2021/12/01 15:03:13;;;;;;;10.02;4.62;;;;;;;7.72;71.26;99329.87;5301458;33;32832;-84
2021/12/01 15:06:27;;;;;;;9.52;4.72;;;;;;;7.61;72.34;99322.28;5306573;33;33936;-84
2021/12/01 15:09:37;;;;;;;9.38;4.72;;;;;;;7.56;73.31;99334.56;5307110;33;33678;-85
2021/12/01 15:12:48;;;;;;;9.00;5.00;;;;;;;7.52;73.55;99319.88;5306332;33;33888;-85
2021/12/01 15:15:54;;;;;;;10.93;4.62;;;;;;;7.57;73.82;99320.16;5305173;33;34063;-85
2021/12/01 15:19:11;;;;;;;8.35;5.15;;;;;;;7.57;74.60;99312.12;5311630;33;34577;-84
2021/12/01 15:22:13;;;;;;;8.00;4.85;;;;;;;7.60;75.10;99306.41;5316846;33;34208;-85
2021/12/01 15:25:16;;;;;;;9.02;5.07;;;;;;;7.45;76.53;99307.22;5318363;33;32219;-84
2021/12/01 15:28:19;;;;;;;8.00;5.28;;;;;;;7.42;76.16;99304.91;5315083;33;34291;-84
2021/12/01 15:31:28;;;;;;;10.13;5.72;;;;;;;7.40;77.09;99306.09;5305535;33;34754;-85
2021/12/01 15:34:32;;;;;;;11.75;5.32;;;;;;;7.29;78.76;99304.72;5304996;33;34679;-84
2021/12/01 15:37:35;;;;;;;18.52;6.65;;;;;;;7.11;80.84;99297.06;5306284;33;33978;-84
2021/12/01 15:40:39;;;;;;;13.52;6.87;;;;;;;7.04;81.37;99280.03;5305970;33;33931;-85
2021/12/01 15:43:42;;;;;;;16.75;7.60;;;;;;;7.08;80.98;99276.00;5293560;33;33691;-85
2021/12/01 15:47:03;;;;;;;13.48;6.78;;;;;;;7.09;80.06;99269.63;5300494;33;34587;-86
2021/12/01 15:50:07;;;;;;;14.00;6.15;;;;;;;7.06;79.77;99280.69;5306070;33;33728;-85
2021/12/01 15:53:11;;;;;;;15.20;6.97;;;;;;;6.95;80.88;99273.94;5306051;33;33966;-85
2021/12/01 15:56:14;;;;;;;11.77;6.68;;;;;;;7.01;80.52;99270.53;5297548;33;34305;-85
2021/12/01 15:59:16;;;;;;;14.80;7.37;;;;;;;7.06;80.39;99263.81;5310414;33;33902;-85
2021/12/01 16:02:19;;;;;;;14.57;7.70;;;;;;;7.07;80.81;99268.16;5321118;33;34816;-85
2021/12/01 16:05:25;;;;;;;15.43;7.50;;;;;;;7.01;81.87;99259.00;5310669;33;34683;-85
2021/12/01 16:08:28;;;;;;;14.40;8.05;;;;;;;7.03;80.62;99256.97;5306446;33;33928;-85
2021/12/01 16:11:30;;;;;;;10.80;6.47;;;;;;;6.94;82.08;99261.59;5306148;33;33817;-85
2021/12/01 16:14:33;;;;;;;14.05;6.87;;;;;;;7.16;79.92;99254.50;5306151;33;33982;-85
2021/12/01 16:17:38;;;;;;;14.00;6.80;;;;;;;7.20;80.16;99252.31;5305459;33;34605;-85
2021/12/01 16:20:41;;;;;;;12.63;6.78;;;;;;;7.31;79.20;99238.44;5306701;33;33513;-84
2021/12/01 16:23:48;;;;;;;13.43;7.30;;;;;;;7.29;79.37;99243.16;5305787;33;34237;-85
2021/12/01 16:26:52;;;;;;;13.85;7.15;;;;;;;7.24;79.76;99229.50;5305926;33;34841;-85
2021/12/01 16:30:33;;;;;;;13.82;6.87;;;;;;;7.35;78.84;99230.87;5305786;33;33919;-84
2021/12/01 16:33:36;;;;;;;13.70;7.07;;;;;;;7.44;77.98;99232.44;5299622;33;34606;-84
2021/12/01 16:36:39;;;;;;;13.52;7.22;;;;;;;7.29;79.11;99229.78;5305900;33;33863;-84
2021/12/01 16:39:43;;;;;;;11.60;7.28;;;;;;;7.35;79.11;99238.91;5305543;33;35146;-84
2021/12/01 16:42:47;;;;;;;14.48;7.78;;;;;;;7.26;80.41;99230.16;5311979;33;33862;-84
2021/12/01 16:45:51;;;;;;;19.80;8.32;;;;;;;7.24;79.25;99229.50;5318159;33;36210;-84
2021/12/01 16:48:54;;;;;;;16.12;7.72;;;;;;;7.24;79.36;99222.28;5305811;33;34355;-84
2021/12/01 16:51:57;;;;;;;13.62;7.18;;;;;;;7.22;79.26;99218.94;5306072;33;33943;-84
2021/12/01 16:55:01;;;;;;;12.98;7.47;;;;;;;7.27;78.61;99215.72;5305931;33;33897;-84
